createdAt,value
2022-10-07T00:00:19.019Z,12.84
2022-10-07T00:01:40.971Z,13.26
2022-10-07T00:02:43.783Z,13.77
2022-10-07T00:03:45.735Z,14.29
2022-10-07T00:04:47.931Z,14.72
2022-10-07T00:06:11.134Z,15.07
2022-10-07T00:07:14.844Z,15.43
2022-10-07T00:08:16.527Z,15.44
2022-10-07T00:09:18.281Z,15.09
2022-10-07T00:10:20.031Z,14.63
2022-10-07T00:11:25.490Z,14.18
2022-10-07T00:12:27.630Z,13.73
2022-10-07T00:13:29.321Z,13.37
2022-10-07T00:14:31.055Z,13.08
2022-10-07T00:15:32.767Z,12.90
2022-10-07T00:16:37.793Z,13.10
2022-10-07T00:17:39.606Z,13.60
2022-10-07T00:18:42.147Z,14.12
2022-10-07T00:19:44.140Z,14.60
2022-10-07T00:20:45.947Z,15.01
2022-10-07T00:21:47.807Z,15.34
2022-10-07T00:22:49.572Z,15.61
2022-10-07T00:23:51.410Z,15.64
2022-10-07T00:24:53.111Z,15.34
2022-10-07T00:25:54.857Z,14.90
2022-10-07T00:26:56.691Z,14.46
2022-10-07T00:27:59.086Z,14.03
2022-10-07T00:29:01.811Z,13.65
2022-10-07T00:30:03.840Z,13.33
2022-10-07T00:31:09.316Z,13.05
2022-10-07T00:32:12.978Z,12.96
2022-10-07T00:33:14.685Z,13.28
2022-10-07T00:34:16.441Z,13.79
2022-10-07T00:35:18.993Z,14.33
2022-10-07T00:36:39.172Z,14.79
2022-10-07T00:37:43.331Z,15.27
2022-10-07T00:38:51.357Z,15.59
2022-10-07T00:39:52.963Z,15.78
2022-10-07T00:40:54.860Z,15.60
2022-10-07T00:41:56.690Z,15.19
2022-10-07T00:42:59.264Z,14.71
2022-10-07T00:44:33.278Z,14.27
2022-10-07T00:45:36.506Z,13.68
2022-10-07T00:46:40.856Z,13.34
2022-10-07T00:47:48.372Z,13.04
2022-10-07T00:48:50.751Z,13.02
2022-10-07T00:50:06.115Z,13.39
2022-10-07T00:51:10.088Z,14.03
2022-10-07T00:52:14.782Z,14.55
2022-10-07T00:53:17.213Z,14.98
2022-10-07T00:54:21.003Z,15.30
2022-10-07T00:55:27.440Z,15.53
2022-10-07T00:56:31.017Z,15.39
2022-10-07T00:57:34.937Z,14.98
2022-10-07T00:58:41.502Z,14.52
2022-10-07T00:59:43.137Z,14.05
2022-10-07T01:00:45.418Z,13.67
2022-10-07T01:01:47.254Z,13.34
2022-10-07T01:02:49.365Z,13.07
2022-10-07T01:03:51.576Z,13.06
2022-10-07T01:04:58.759Z,13.43
2022-10-07T01:06:00.410Z,13.98
2022-10-07T01:07:02.432Z,14.45
2022-10-07T01:08:04.310Z,14.86
2022-10-07T01:09:10.658Z,15.20
2022-10-07T01:10:20.049Z,15.52
2022-10-07T01:11:50.895Z,15.63
2022-10-07T01:13:22.736Z,15.17
2022-10-07T01:14:55.025Z,14.43
2022-10-07T01:16:23.342Z,13.75
2022-10-07T01:17:41.280Z,13.22
2022-10-07T01:18:55.469Z,12.91
2022-10-07T01:20:31.224Z,13.13
2022-10-07T01:22:02.152Z,13.88
2022-10-07T01:23:20.901Z,14.54
2022-10-07T01:24:51.538Z,14.98
2022-10-07T01:26:31.159Z,15.40
2022-10-07T01:27:37.936Z,15.38
2022-10-07T01:28:44.711Z,14.95
2022-10-07T01:29:56.322Z,14.44
2022-10-07T01:31:05.249Z,13.90
2022-10-07T01:32:19.404Z,13.46
2022-10-07T01:33:28.987Z,13.03
2022-10-07T01:34:34.684Z,12.71
2022-10-07T01:35:37.881Z,12.76
2022-10-07T01:36:51.019Z,13.21
2022-10-07T01:38:00.541Z,13.83
2022-10-07T01:39:12.761Z,14.39
2022-10-07T01:40:25.365Z,14.84
2022-10-07T01:41:29.117Z,15.21
2022-10-07T01:42:32.421Z,15.37
2022-10-07T01:43:36.412Z,15.15
2022-10-07T01:44:40.225Z,14.72
2022-10-07T01:45:42.242Z,14.22
2022-10-07T01:46:44.083Z,13.78
2022-10-07T01:47:46.907Z,13.38
2022-10-07T01:48:49.269Z,13.02
2022-10-07T01:49:52.016Z,12.70
2022-10-07T01:50:54.590Z,12.53
2022-10-07T01:52:34.809Z,12.78
2022-10-07T01:54:06.265Z,13.61
2022-10-07T01:55:19.755Z,14.32
2022-10-07T01:56:55.162Z,14.77
2022-10-07T01:58:20.979Z,15.21
2022-10-07T01:59:47.515Z,15.31
2022-10-07T02:01:13.201Z,14.82
2022-10-07T02:02:48.250Z,14.18
2022-10-07T02:03:59.874Z,13.53
2022-10-07T02:05:16.036Z,13.13
2022-10-07T02:06:37.725Z,12.78
2022-10-07T02:08:11.677Z,12.74
2022-10-07T02:09:39.299Z,13.42
2022-10-07T02:11:11.541Z,14.16
2022-10-07T02:12:28.190Z,14.80
2022-10-07T02:13:57.842Z,15.19
2022-10-07T02:15:13.574Z,15.52
2022-10-07T02:16:32.585Z,15.30
2022-10-07T02:17:42.456Z,14.72
2022-10-07T02:18:52.384Z,14.20
2022-10-07T02:19:56.601Z,13.73
2022-10-07T02:21:05.094Z,13.36
2022-10-07T02:22:10.627Z,13.02
2022-10-07T02:23:16.908Z,12.83
2022-10-07T02:24:25.172Z,13.09
2022-10-07T02:25:33.306Z,13.64
2022-10-07T02:26:37.242Z,14.23
2022-10-07T02:27:42.926Z,14.71
2022-10-07T02:28:49.786Z,15.12
2022-10-07T02:29:57.438Z,15.44
2022-10-07T02:31:04.280Z,15.45
2022-10-07T02:32:12.210Z,15.09
2022-10-07T02:33:14.648Z,14.59
2022-10-07T02:34:21.558Z,14.14
2022-10-07T02:35:32.914Z,13.69
2022-10-07T02:36:41.010Z,13.31
2022-10-07T02:37:47.849Z,12.99
2022-10-07T02:38:50.119Z,12.79
2022-10-07T02:39:54.852Z,12.99
2022-10-07T02:41:31.420Z,13.48
2022-10-07T02:43:03.228Z,14.30
2022-10-07T02:44:19.358Z,14.89
2022-10-07T02:45:35.386Z,15.27
2022-10-07T02:46:46.711Z,15.57
2022-10-07T02:48:02.620Z,15.56
2022-10-07T02:49:12.774Z,15.09
2022-10-07T02:50:22.491Z,14.55
2022-10-07T02:51:36.252Z,14.04
2022-10-07T02:52:42.453Z,13.59
2022-10-07T02:53:49.556Z,13.24
2022-10-07T02:55:22.705Z,12.97
2022-10-07T02:56:27.502Z,13.26
2022-10-07T02:57:35.132Z,13.80
2022-10-07T02:58:45.726Z,14.37
2022-10-07T02:59:51.786Z,14.87
2022-10-07T03:00:59.670Z,15.26
2022-10-07T03:02:06.849Z,15.51
2022-10-07T03:03:08.814Z,15.34
2022-10-07T03:04:18.654Z,14.89
2022-10-07T03:05:22.503Z,14.44
2022-10-07T03:06:27.108Z,14.00
2022-10-07T03:07:29.176Z,13.61
2022-10-07T03:08:32.303Z,13.29
2022-10-07T03:09:35.215Z,12.97
2022-10-07T03:10:37.872Z,12.71
2022-10-07T03:11:40.975Z,12.70
2022-10-07T03:12:43.453Z,13.08
2022-10-07T03:13:45.922Z,13.62
2022-10-07T03:14:50.038Z,14.16
2022-10-07T03:15:52.153Z,14.64
2022-10-07T03:16:57.468Z,15.04
2022-10-07T03:17:59.267Z,15.28
2022-10-07T03:19:01.625Z,15.17
2022-10-07T03:20:10.230Z,14.74
2022-10-07T03:21:12.417Z,14.28
2022-10-07T03:22:14.090Z,13.83
2022-10-07T03:23:16.079Z,13.43
2022-10-07T03:24:18.527Z,13.09
2022-10-07T03:25:20.898Z,12.79
2022-10-07T03:26:24.181Z,12.56
2022-10-07T03:27:26.208Z,12.68
2022-10-07T03:28:30.091Z,13.14
2022-10-07T03:29:32.992Z,13.71
2022-10-07T03:30:34.851Z,14.24
2022-10-07T03:31:37.668Z,14.68
2022-10-07T03:32:41.462Z,15.04
2022-10-07T03:33:43.842Z,15.32
2022-10-07T03:34:45.570Z,15.28
2022-10-07T03:35:47.256Z,14.91
2022-10-07T03:36:48.909Z,14.45
2022-10-07T03:37:50.767Z,14.00
2022-10-07T03:38:54.970Z,13.58
2022-10-07T03:39:57.082Z,13.22
2022-10-07T03:41:01.810Z,12.90
2022-10-07T03:42:04.559Z,12.66
2022-10-07T03:43:07.621Z,12.85
2022-10-07T03:44:09.639Z,13.31
2022-10-07T03:45:11.310Z,13.82
2022-10-07T03:46:14.100Z,14.28
2022-10-07T03:47:17.561Z,14.67
2022-10-07T03:48:19.546Z,14.99
2022-10-07T03:49:21.866Z,15.26
2022-10-07T03:50:26.123Z,15.41
2022-10-07T03:51:27.814Z,15.21
2022-10-07T03:52:29.722Z,14.78
2022-10-07T03:53:32.069Z,14.31
2022-10-07T03:54:35.273Z,13.87
2022-10-07T03:55:37.644Z,13.49
2022-10-07T03:56:39.367Z,13.17
2022-10-07T03:57:50.004Z,12.88
2022-10-07T03:58:52.764Z,12.65
2022-10-07T03:59:54.976Z,12.85
2022-10-07T04:01:11.422Z,13.33
2022-10-07T04:02:16.838Z,14.02
2022-10-07T04:03:18.890Z,14.48
2022-10-07T04:04:21.801Z,14.87
2022-10-07T04:05:23.577Z,15.20
2022-10-07T04:06:26.267Z,15.32
2022-10-07T04:07:28.122Z,15.06
2022-10-07T04:08:32.922Z,14.62
2022-10-07T04:09:34.831Z,14.15
2022-10-07T04:10:36.745Z,13.73
2022-10-07T04:11:40.602Z,13.36
2022-10-07T04:12:45.243Z,13.03
2022-10-07T04:13:48.372Z,12.74
2022-10-07T04:14:51.208Z,12.69
2022-10-07T04:15:53.468Z,13.04
2022-10-07T04:16:56.731Z,13.57
2022-10-07T04:17:58.689Z,14.10
2022-10-07T04:19:00.700Z,14.56
2022-10-07T04:20:03.129Z,14.94
2022-10-07T04:21:05.492Z,15.25
2022-10-07T04:22:09.035Z,15.36
2022-10-07T04:23:11.630Z,15.10
2022-10-07T04:24:13.677Z,14.66
2022-10-07T04:25:33.863Z,14.20
2022-10-07T04:26:38.182Z,13.63
2022-10-07T04:27:51.569Z,13.26
2022-10-07T04:28:53.958Z,12.88
2022-10-07T04:29:57.029Z,12.63
2022-10-07T04:30:58.846Z,12.68
2022-10-07T04:32:06.001Z,13.15
2022-10-07T04:33:08.450Z,13.69
2022-10-07T04:34:10.216Z,14.19
2022-10-07T04:35:14.361Z,14.63
2022-10-07T04:36:16.427Z,14.97
2022-10-07T04:37:22.159Z,15.19
2022-10-07T04:38:28.138Z,15.02
2022-10-07T04:39:49.271Z,14.58
2022-10-07T04:40:52.505Z,14.00
2022-10-07T04:41:55.132Z,13.58
2022-10-07T04:43:19.505Z,13.21
2022-10-07T04:44:23.728Z,12.80
2022-10-07T04:45:43.405Z,12.56
2022-10-07T04:46:45.151Z,12.79
2022-10-07T04:47:48.660Z,13.30
2022-10-07T04:48:50.588Z,13.81
2022-10-07T04:49:56.010Z,14.32
2022-10-07T04:51:02.740Z,14.70
2022-10-07T04:52:04.424Z,15.05
2022-10-07T04:53:14.345Z,15.27
2022-10-07T04:54:16.154Z,15.12
2022-10-07T04:55:24.117Z,14.65
2022-10-07T04:56:28.354Z,14.17
2022-10-07T04:57:30.191Z,13.68
2022-10-07T04:58:32.870Z,13.26
2022-10-07T04:59:39.266Z,12.88
2022-10-07T05:00:49.594Z,12.54
2022-10-07T05:01:52.161Z,12.57
2022-10-07T05:02:53.879Z,12.97
2022-10-07T05:03:56.224Z,13.48
2022-10-07T05:04:58.003Z,13.96
2022-10-07T05:06:05.961Z,14.39
2022-10-07T05:07:08.642Z,14.78
2022-10-07T05:08:12.500Z,15.07
2022-10-07T05:09:14.365Z,15.31
2022-10-07T05:10:18.874Z,15.28
2022-10-07T05:11:20.588Z,14.91
2022-10-07T05:12:33.321Z,14.35
2022-10-07T05:13:38.716Z,13.88
2022-10-07T05:14:43.083Z,13.45
2022-10-07T05:15:53.882Z,13.07
2022-10-07T05:16:55.646Z,12.72
2022-10-07T05:17:59.982Z,12.66
2022-10-07T05:19:02.070Z,12.99
2022-10-07T05:20:04.856Z,13.50
2022-10-07T05:21:08.792Z,14.01
2022-10-07T05:22:13.453Z,14.46
2022-10-07T05:23:18.387Z,14.81
2022-10-07T05:24:20.660Z,15.10
2022-10-07T05:25:22.412Z,15.33
2022-10-07T05:26:24.084Z,15.42
2022-10-07T05:27:32.469Z,15.13
2022-10-07T05:28:35.373Z,14.66
2022-10-07T05:29:37.068Z,14.18
2022-10-07T05:30:39.205Z,13.73
2022-10-07T05:31:41.339Z,13.35
2022-10-07T05:32:43.210Z,13.00
2022-10-07T05:33:46.243Z,12.80
2022-10-07T05:34:48.093Z,12.99
2022-10-07T05:35:49.756Z,13.45
2022-10-07T05:36:51.461Z,13.96
2022-10-07T05:37:54.251Z,14.42
2022-10-07T05:38:59.899Z,14.82
2022-10-07T05:40:11.358Z,15.18
2022-10-07T05:41:13.369Z,15.44
2022-10-07T05:42:15.781Z,15.59
2022-10-07T05:43:23.251Z,15.39
2022-10-07T05:44:25.162Z,14.96
2022-10-07T05:45:27.139Z,14.50
2022-10-07T05:46:29.314Z,14.06
2022-10-07T05:47:34.925Z,13.68
2022-10-07T05:48:39.461Z,13.33
2022-10-07T05:49:41.943Z,13.16
2022-10-07T05:50:47.382Z,13.42
2022-10-07T05:51:49.401Z,13.94
2022-10-07T05:52:52.043Z,14.46
2022-10-07T05:53:57.504Z,14.95
2022-10-07T05:55:03.847Z,15.39
2022-10-07T05:56:12.213Z,15.72
2022-10-07T05:57:14.137Z,16.00
2022-10-07T05:58:15.937Z,15.94
2022-10-07T05:59:17.786Z,15.61
2022-10-07T06:00:20.939Z,15.15
2022-10-07T06:01:24.820Z,14.71
2022-10-07T06:02:26.722Z,14.31
2022-10-07T06:03:29.168Z,13.96
2022-10-07T06:04:31.723Z,13.65
2022-10-07T06:05:33.516Z,13.55
2022-10-07T06:06:36.470Z,13.83
2022-10-07T06:07:41.338Z,14.35
2022-10-07T06:08:43.149Z,14.85
2022-10-07T06:10:03.589Z,15.30
2022-10-07T06:11:25.301Z,15.78
2022-10-07T06:12:45.456Z,16.17
2022-10-07T06:13:54.157Z,16.25
2022-10-07T06:14:55.913Z,15.91
2022-10-07T06:16:05.361Z,15.47
2022-10-07T06:17:07.396Z,14.95
2022-10-07T06:18:09.296Z,14.56
2022-10-07T06:19:22.382Z,14.21
2022-10-07T06:20:25.137Z,13.89
2022-10-07T06:21:28.162Z,13.91
2022-10-07T06:22:34.089Z,14.35
2022-10-07T06:23:35.863Z,14.87
2022-10-07T06:24:37.612Z,15.38
2022-10-07T06:25:39.924Z,15.84
2022-10-07T06:26:44.844Z,16.21
2022-10-07T06:27:52.774Z,16.55
2022-10-07T06:28:55.485Z,16.78
2022-10-07T06:29:57.452Z,16.65
2022-10-07T06:30:59.588Z,16.27
2022-10-07T06:32:01.407Z,15.84
2022-10-07T06:33:03.719Z,15.41
2022-10-07T06:34:05.554Z,15.04
2022-10-07T06:35:07.907Z,14.72
2022-10-07T06:36:12.472Z,14.45
2022-10-07T06:37:14.570Z,14.19
2022-10-07T06:38:17.114Z,14.20
2022-10-07T06:39:19.080Z,14.59
2022-10-07T06:40:21.832Z,15.11
2022-10-07T06:41:23.920Z,15.61
2022-10-07T06:42:36.799Z,16.12
2022-10-07T06:44:03.301Z,16.57
2022-10-07T06:45:05.706Z,16.66
2022-10-07T06:46:12.840Z,16.41
2022-10-07T06:47:15.964Z,15.95
2022-10-07T06:48:19.500Z,15.51
2022-10-07T06:49:21.220Z,15.12
2022-10-07T06:50:22.951Z,14.77
2022-10-07T06:51:25.094Z,14.45
2022-10-07T06:52:26.900Z,14.18
2022-10-07T06:53:29.724Z,13.93
2022-10-07T06:54:32.372Z,13.78
2022-10-07T06:55:34.152Z,13.99
2022-10-07T06:56:36.062Z,14.51
2022-10-07T06:57:46.216Z,15.07
2022-10-07T06:58:50.005Z,15.66
2022-10-07T06:59:55.733Z,16.11
2022-10-07T07:00:59.835Z,16.45
2022-10-07T07:02:02.255Z,16.66
2022-10-07T07:03:04.319Z,16.51
2022-10-07T07:04:06.516Z,16.14
2022-10-07T07:05:09.085Z,15.72
2022-10-07T07:06:12.047Z,15.31
2022-10-07T07:07:14.004Z,14.96
2022-10-07T07:08:18.246Z,14.65
2022-10-07T07:09:22.663Z,14.38
2022-10-07T07:10:25.618Z,14.16
2022-10-07T07:11:37.062Z,13.96
2022-10-07T07:13:15.572Z,14.12
2022-10-07T07:14:18.705Z,14.65
2022-10-07T07:15:24.573Z,15.28
2022-10-07T07:16:26.745Z,15.83
2022-10-07T07:17:29.135Z,16.30
2022-10-07T07:18:31.342Z,16.69
2022-10-07T07:19:33.143Z,17.01
2022-10-07T07:20:39.931Z,17.06
2022-10-07T07:21:42.139Z,16.77
2022-10-07T07:22:45.976Z,16.39
2022-10-07T07:23:48.509Z,16.02
2022-10-07T07:24:50.222Z,15.71
2022-10-07T07:25:51.923Z,15.44
2022-10-07T07:26:53.610Z,15.21
2022-10-07T07:27:58.682Z,15.01
2022-10-07T07:29:03.360Z,14.87
2022-10-07T07:30:11.172Z,15.05
2022-10-07T07:31:13.638Z,15.58
2022-10-07T07:32:15.395Z,16.15
2022-10-07T07:33:17.934Z,16.72
2022-10-07T07:34:20.727Z,17.20
2022-10-07T07:35:24.303Z,17.59
2022-10-07T07:36:26.355Z,17.70
2022-10-07T07:37:30.167Z,17.48
2022-10-07T07:38:32.031Z,17.11
2022-10-07T07:39:33.682Z,16.76
2022-10-07T07:40:53.530Z,16.36
2022-10-07T07:41:55.746Z,16.09
2022-10-07T07:42:58.102Z,15.86
2022-10-07T07:44:02.669Z,15.66
2022-10-07T07:45:05.101Z,15.48
2022-10-07T07:46:07.662Z,15.34
2022-10-07T07:47:09.422Z,15.22
2022-10-07T07:48:13.874Z,15.10
2022-10-07T07:49:17.146Z,15.02
2022-10-07T07:50:22.563Z,15.26
2022-10-07T07:51:24.484Z,15.83
2022-10-07T07:52:26.318Z,16.45
2022-10-07T07:53:28.569Z,17.04
2022-10-07T07:54:30.532Z,17.52
2022-10-07T07:55:32.472Z,17.86
2022-10-07T07:56:34.119Z,17.88
2022-10-07T07:57:36.597Z,17.62
2022-10-07T07:58:40.235Z,17.26
2022-10-07T07:59:42.062Z,16.95
2022-10-07T08:00:44.029Z,16.68
2022-10-07T08:01:45.829Z,16.44
2022-10-07T08:02:48.982Z,16.25
2022-10-07T08:03:52.718Z,16.08
2022-10-07T08:04:54.353Z,15.95
2022-10-07T08:05:56.468Z,15.83
2022-10-07T08:06:58.161Z,15.71
2022-10-07T08:07:59.902Z,15.62
2022-10-07T08:09:01.869Z,15.54
2022-10-07T08:10:04.698Z,15.47
2022-10-07T08:11:20.845Z,15.41
2022-10-07T08:12:23.415Z,15.34
2022-10-07T08:13:25.800Z,15.28
2022-10-07T08:14:27.498Z,15.24
2022-10-07T08:15:29.642Z,15.20
2022-10-07T08:16:31.495Z,15.17
2022-10-07T08:17:34.650Z,15.13
2022-10-07T08:18:36.887Z,15.10
2022-10-07T08:19:38.617Z,15.07
2022-10-07T08:20:40.504Z,15.05
2022-10-07T08:21:42.947Z,15.03
2022-10-07T08:22:49.727Z,15.02
2022-10-07T08:23:53.686Z,15.01
2022-10-07T08:24:59.889Z,15.00
2022-10-07T08:26:03.422Z,15.00
2022-10-07T08:27:06.210Z,15.00
2022-10-07T08:28:09.547Z,15.00
2022-10-07T08:29:11.882Z,15.00
2022-10-07T08:30:13.794Z,15.00
2022-10-07T08:31:18.730Z,14.99
2022-10-07T08:32:20.474Z,14.98
2022-10-07T08:33:22.722Z,14.97
2022-10-07T08:34:24.439Z,14.96
2022-10-07T08:35:26.091Z,14.94
2022-10-07T08:36:30.022Z,14.93
2022-10-07T08:37:31.667Z,14.94
2022-10-07T08:38:36.910Z,14.95
2022-10-07T08:39:38.636Z,14.94
2022-10-07T08:40:53.551Z,14.93
2022-10-07T08:42:20.869Z,14.94
2022-10-07T08:43:24.838Z,15.00
2022-10-07T08:44:33.597Z,15.40
2022-10-07T08:45:35.632Z,16.21
2022-10-07T08:46:39.218Z,17.01
2022-10-07T08:47:47.452Z,17.74
2022-10-07T08:48:59.892Z,18.37
2022-10-07T08:50:20.004Z,18.50
2022-10-07T08:51:31.460Z,18.21
2022-10-07T08:52:33.011Z,17.90
2022-10-07T08:53:38.064Z,17.66
2022-10-07T08:54:39.730Z,17.45
2022-10-07T08:56:08.416Z,17.28
2022-10-07T08:57:29.278Z,17.08
2022-10-07T08:58:54.199Z,16.94
2022-10-07T09:00:03.814Z,16.82
2022-10-07T09:01:23.032Z,16.75
2022-10-07T09:02:44.251Z,16.68
2022-10-07T09:03:55.438Z,16.63
2022-10-07T09:05:16.851Z,16.60
2022-10-07T09:06:28.755Z,16.58
2022-10-07T09:07:45.666Z,16.57
2022-10-07T09:08:57.745Z,16.55
2022-10-07T09:10:26.277Z,16.56
2022-10-07T09:11:32.321Z,16.58
2022-10-07T09:12:44.905Z,16.60
2022-10-07T09:13:54.378Z,16.62
2022-10-07T09:15:02.905Z,16.64
2022-10-07T09:16:23.170Z,16.64
2022-10-07T09:17:43.874Z,16.66
2022-10-07T09:18:54.030Z,16.69
2022-10-07T09:20:05.595Z,16.71
2022-10-07T09:21:18.899Z,16.74
2022-10-07T09:22:34.244Z,16.78
2022-10-07T09:23:36.833Z,16.81
2022-10-07T09:24:38.886Z,16.84
2022-10-07T09:25:41.544Z,16.86
2022-10-07T09:26:43.704Z,16.86
2022-10-07T09:27:45.628Z,16.87
2022-10-07T09:28:47.910Z,16.87
2022-10-07T09:29:51.316Z,16.85
2022-10-07T09:30:53.203Z,16.86
2022-10-07T09:31:56.196Z,16.87
2022-10-07T09:32:58.335Z,16.89
2022-10-07T09:34:00.059Z,16.90
2022-10-07T09:35:05.958Z,16.93
2022-10-07T09:36:11.330Z,16.96
2022-10-07T09:37:12.980Z,16.99
2022-10-07T09:38:15.369Z,17.02
2022-10-07T09:39:23.917Z,17.06
2022-10-07T09:41:03.498Z,17.09
2022-10-07T09:42:14.886Z,17.14
2022-10-07T09:43:19.435Z,17.19
2022-10-07T09:44:27.526Z,17.20
2022-10-07T09:45:32.335Z,17.23
2022-10-07T09:46:51.150Z,17.27
2022-10-07T09:47:56.787Z,17.30
2022-10-07T09:49:04.396Z,17.33
2022-10-07T09:50:26.446Z,17.36
2022-10-07T09:51:29.337Z,17.39
2022-10-07T09:52:32.816Z,17.42
2022-10-07T09:53:34.511Z,17.47
2022-10-07T09:54:36.978Z,17.50
2022-10-07T09:55:41.642Z,17.55
2022-10-07T09:56:46.534Z,17.56
2022-10-07T09:58:04.697Z,17.56
2022-10-07T09:59:27.693Z,17.59
2022-10-07T10:00:30.579Z,17.61
2022-10-07T10:01:32.790Z,17.64
2022-10-07T10:02:35.144Z,17.67
2022-10-07T10:03:38.483Z,17.71
2022-10-07T10:04:54.520Z,17.74
2022-10-07T10:06:01.302Z,17.79
2022-10-07T10:07:19.108Z,17.84
2022-10-07T10:08:28.381Z,17.90
2022-10-07T10:09:30.666Z,17.95
2022-10-07T10:10:37.008Z,17.99
2022-10-07T10:11:38.915Z,18.05
2022-10-07T10:12:51.161Z,18.10
2022-10-07T10:13:52.922Z,18.16
2022-10-07T10:15:01.605Z,18.20
2022-10-07T10:16:06.178Z,18.25
2022-10-07T10:17:25.478Z,18.27
2022-10-07T10:18:41.438Z,18.28
2022-10-07T10:19:43.308Z,18.29
2022-10-07T10:20:46.561Z,18.31
2022-10-07T10:21:55.057Z,18.32
2022-10-07T10:22:58.422Z,18.33
2022-10-07T10:24:06.012Z,18.34
2022-10-07T10:25:29.572Z,18.38
2022-10-07T10:27:01.510Z,18.42
2022-10-07T10:28:13.497Z,18.48
2022-10-07T10:29:35.886Z,18.54
2022-10-07T10:31:04.649Z,18.59
2022-10-07T10:32:21.362Z,18.63
2022-10-07T10:33:47.391Z,18.67
2022-10-07T10:35:40.165Z,18.70
2022-10-07T10:36:52.050Z,18.76
2022-10-07T10:38:10.937Z,18.80
2022-10-07T10:39:34.667Z,18.85
2022-10-07T10:41:11.861Z,18.89
2022-10-07T10:42:22.742Z,18.94
2022-10-07T10:43:24.291Z,18.98
2022-10-07T10:44:55.984Z,19.01
2022-10-07T10:46:23.431Z,19.05
2022-10-07T10:48:00.860Z,19.08
2022-10-07T10:49:14.226Z,19.10
2022-10-07T10:50:57.871Z,19.15
2022-10-07T10:52:29.916Z,19.21
2022-10-07T10:53:49.743Z,19.26
2022-10-07T10:55:17.790Z,19.31
2022-10-07T10:56:41.395Z,19.39
2022-10-07T10:58:06.694Z,19.47
2022-10-07T10:59:29.867Z,19.56
2022-10-07T11:00:59.455Z,19.66
2022-10-07T11:02:44.678Z,19.75
2022-10-07T11:04:14.343Z,19.90
2022-10-07T11:05:19.586Z,20.01
2022-10-07T11:06:23.430Z,20.05
2022-10-07T11:07:34.119Z,20.09
2022-10-07T11:08:38.642Z,20.11
2022-10-07T11:09:51.053Z,20.12
2022-10-07T11:11:12.076Z,20.14
2022-10-07T11:12:41.641Z,20.19
2022-10-07T11:14:05.767Z,20.27
2022-10-07T11:15:20.764Z,20.35
2022-10-07T11:16:45.317Z,20.41
2022-10-07T11:17:51.940Z,20.49
2022-10-07T11:19:06.992Z,20.53
2022-10-07T11:20:25.280Z,20.57
2022-10-07T11:21:32.340Z,20.58
2022-10-07T11:22:47.979Z,20.57
2022-10-07T11:24:02.124Z,20.58
2022-10-07T11:25:30.314Z,20.63
2022-10-07T11:26:42.155Z,20.71
2022-10-07T11:27:49.702Z,20.79
2022-10-07T11:28:53.325Z,20.88
2022-10-07T11:30:06.505Z,20.95
2022-10-07T11:31:19.973Z,21.03
2022-10-07T11:32:35.815Z,21.09
2022-10-07T11:33:46.482Z,21.15
2022-10-07T11:35:27.126Z,21.22
2022-10-07T11:36:43.798Z,21.33
2022-10-07T11:37:54.149Z,21.42
2022-10-07T11:38:55.840Z,21.50
2022-10-07T11:39:57.648Z,21.59
2022-10-07T11:41:29.835Z,21.66
2022-10-07T11:42:40.435Z,21.73
2022-10-07T11:43:57.099Z,21.80
2022-10-07T11:45:05.372Z,21.86
2022-10-07T11:46:36.234Z,21.91
2022-10-07T11:47:49.581Z,21.99
2022-10-07T11:49:22.295Z,22.07
2022-10-07T11:50:29.877Z,22.13
2022-10-07T11:51:40.935Z,22.17
2022-10-07T11:52:47.717Z,22.21
2022-10-07T11:53:56.028Z,22.26
2022-10-07T11:55:06.354Z,22.31
2022-10-07T11:56:23.198Z,22.36
2022-10-07T11:57:31.658Z,22.39
2022-10-07T11:58:37.303Z,22.42
2022-10-07T11:59:58.066Z,22.47
2022-10-07T12:01:32.060Z,22.52
2022-10-07T12:02:44.017Z,22.59
2022-10-07T12:03:47.533Z,22.63
2022-10-07T12:04:49.281Z,22.68
2022-10-07T12:05:50.854Z,22.72
2022-10-07T12:07:29.794Z,22.77
2022-10-07T12:08:37.395Z,22.89
2022-10-07T12:10:23.227Z,23.00
2022-10-07T12:11:37.131Z,23.19
2022-10-07T12:12:45.219Z,23.27
2022-10-07T12:13:51.465Z,23.34
2022-10-07T12:15:02.469Z,23.38
2022-10-07T12:16:25.685Z,23.44
2022-10-07T12:17:29.686Z,23.55
2022-10-07T12:18:31.384Z,23.65
2022-10-07T12:19:37.307Z,23.73
2022-10-07T12:20:50.770Z,23.81
2022-10-07T12:22:04.690Z,23.90
2022-10-07T12:23:25.862Z,24.00
2022-10-07T12:24:45.947Z,24.10
2022-10-07T12:25:51.392Z,24.16
2022-10-07T12:26:56.580Z,24.19
2022-10-07T12:27:58.416Z,24.22
2022-10-07T12:29:00.426Z,24.24
2022-10-07T12:30:02.653Z,24.27
2022-10-07T12:31:07.055Z,24.31
2022-10-07T12:32:45.220Z,24.35
2022-10-07T12:33:46.963Z,24.41
2022-10-07T12:34:48.590Z,24.46
2022-10-07T12:35:54.287Z,24.52
2022-10-07T12:37:35.000Z,24.60
2022-10-07T12:38:36.908Z,24.70
2022-10-07T12:39:38.990Z,24.74
2022-10-07T12:40:44.461Z,24.76
2022-10-07T12:41:46.802Z,24.79
2022-10-07T12:43:04.385Z,24.84
2022-10-07T12:44:23.553Z,24.93
2022-10-07T12:45:29.386Z,25.03
2022-10-07T12:46:36.906Z,25.10
2022-10-07T12:47:40.163Z,25.16
2022-10-07T12:48:58.413Z,25.21
2022-10-07T12:50:11.241Z,25.27
2022-10-07T12:51:23.072Z,25.33
2022-10-07T12:52:54.369Z,25.39
2022-10-07T12:54:00.255Z,25.48
2022-10-07T12:55:14.618Z,25.50
2022-10-07T12:56:26.614Z,25.50
2022-10-07T12:57:34.984Z,25.52
2022-10-07T12:59:07.194Z,25.57
2022-10-07T13:00:25.571Z,25.62
2022-10-07T13:02:08.143Z,25.65
2022-10-07T13:03:15.741Z,25.72
2022-10-07T13:04:31.900Z,25.81
2022-10-07T13:05:48.467Z,25.93
2022-10-07T13:07:22.589Z,26.07
2022-10-07T13:08:29.731Z,26.17
2022-10-07T13:09:49.969Z,26.22
2022-10-07T13:11:43.159Z,26.26
2022-10-07T13:13:07.509Z,26.32
2022-10-07T13:14:21.876Z,26.35
2022-10-07T13:15:41.497Z,26.39
2022-10-07T13:17:20.316Z,26.44
2022-10-07T13:18:37.279Z,26.46
2022-10-07T13:19:51.899Z,26.47
2022-10-07T13:21:07.868Z,26.49
2022-10-07T13:22:20.004Z,26.54
2022-10-07T13:23:27.242Z,26.60
2022-10-07T13:24:29.854Z,26.66
2022-10-07T13:25:31.706Z,26.70
2022-10-07T13:26:33.474Z,26.75
2022-10-07T13:27:38.737Z,26.80
2022-10-07T13:28:58.387Z,26.85
2022-10-07T13:30:04.787Z,26.92
2022-10-07T13:31:17.751Z,26.98
2022-10-07T13:32:29.689Z,27.06
2022-10-07T13:33:32.422Z,27.13
2022-10-07T13:34:34.385Z,27.19
2022-10-07T13:35:39.637Z,27.21
2022-10-07T13:36:43.678Z,27.21
2022-10-07T13:37:48.402Z,27.23
2022-10-07T13:39:15.352Z,27.25
2022-10-07T13:40:33.959Z,27.28
2022-10-07T13:41:38.988Z,27.34
2022-10-07T13:42:40.733Z,27.36
2022-10-07T13:43:44.532Z,27.39
2022-10-07T13:44:46.258Z,27.45
2022-10-07T13:45:48.095Z,27.49
2022-10-07T13:47:00.224Z,27.52
2022-10-07T13:48:02.362Z,27.57
2022-10-07T13:49:05.385Z,27.63
2022-10-07T13:50:15.999Z,27.66
2022-10-07T13:51:32.803Z,27.69
2022-10-07T13:52:39.646Z,27.67
2022-10-07T13:53:41.594Z,27.65
2022-10-07T13:54:51.425Z,27.62
2022-10-07T13:56:24.087Z,27.58
2022-10-07T13:57:29.765Z,27.56
2022-10-07T13:58:33.175Z,27.58
2022-10-07T13:59:36.899Z,27.63
2022-10-07T14:00:47.159Z,27.66
2022-10-07T14:01:52.703Z,27.64
2022-10-07T14:02:54.671Z,27.65
2022-10-07T14:04:14.621Z,27.66
2022-10-07T14:05:21.400Z,27.65
2022-10-07T14:06:39.446Z,27.63
2022-10-07T14:07:41.966Z,27.55
2022-10-07T14:08:51.309Z,27.50
2022-10-07T14:10:04.905Z,27.44
2022-10-07T14:11:19.793Z,27.34
2022-10-07T14:12:35.207Z,27.25
2022-10-07T14:13:37.965Z,27.21
2022-10-07T14:14:43.215Z,27.17
2022-10-07T14:15:54.266Z,27.11
2022-10-07T14:17:01.457Z,27.06
2022-10-07T14:18:10.506Z,27.05
2022-10-07T14:19:20.983Z,27.05
2022-10-07T14:20:35.137Z,27.07
2022-10-07T14:21:41.270Z,27.07
2022-10-07T14:22:49.957Z,27.05
2022-10-07T14:23:51.742Z,27.00
2022-10-07T14:25:01.479Z,26.96
2022-10-07T14:26:06.570Z,26.88
2022-10-07T14:27:46.989Z,26.81
2022-10-07T14:28:48.684Z,26.62
2022-10-07T14:29:50.450Z,26.47
2022-10-07T14:31:26.175Z,26.29
2022-10-07T14:32:46.587Z,25.99
2022-10-07T14:35:09.546Z,25.74
2022-10-07T14:36:16.428Z,25.30
2022-10-07T14:37:17.922Z,25.12
2022-10-07T14:38:26.094Z,24.91
2022-10-07T14:39:35.662Z,24.70
2022-10-07T14:40:37.365Z,24.49
2022-10-07T14:41:39.070Z,24.31
2022-10-07T14:42:40.705Z,24.14
2022-10-07T14:43:45.326Z,23.96
2022-10-07T14:44:47.818Z,23.76
2022-10-07T14:45:49.484Z,23.58